Time;durP1;ratioP1;P1;durP2;ratioP2;P2;SDS_P1;SDS_P2;PMS_P1;PMS_P2;Temp;Humidity;BMP_temperature;BMP_pressure;BME280_temperature;BME280_humidity;BME280_pressure;Samples;Min_cycle;Max_cycle;Signal;HPM_P1;HPM_P2
2022/12/13 00:00:56;;;;;;;19.73;10.93;;;-0.60;1.00;;;;;;5078195;28;20569;-53
2022/12/13 00:03:23;;;;;;;20.50;11.10;;;-0.60;1.00;;;;;;5078973;28;20205;-52
2022/12/13 00:05:50;;;;;;;25.67;12.07;;;-0.60;1.00;;;;;;5079413;28;20257;-53
2022/12/13 00:08:17;;;;;;;17.80;11.47;;;-0.60;1.00;;;;;;5079585;28;20272;-52
2022/12/13 00:10:43;;;;;;;19.00;11.67;;;-0.50;1.00;;;;;;5062209;28;20621;-52
2022/12/13 00:13:10;;;;;;;27.70;12.50;;;-0.60;1.00;;;;;;5080496;28;20203;-52
2022/12/13 00:15:37;;;;;;;24.47;11.53;;;-0.70;1.00;;;;;;5062839;28;20663;-53
2022/12/13 00:18:04;;;;;;;19.07;10.33;;;-0.70;1.00;;;;;;5079319;28;20210;-53
2022/12/13 00:20:30;;;;;;;19.30;10.63;;;-0.70;1.00;;;;;;5078339;28;20199;-53
2022/12/13 00:22:57;;;;;;;18.30;11.20;;;-0.70;1.00;;;;;;5076666;28;20219;-54
2022/12/13 00:25:24;;;;;;;19.67;11.23;;;-0.70;1.00;;;;;;5078679;28;20230;-51
2022/12/13 00:27:50;;;;;;;19.73;10.53;;;-0.70;1.00;;;;;;5061836;28;20234;-53
2022/12/13 00:30:17;;;;;;;20.40;11.60;;;-0.70;1.00;;;;;;5078217;28;20206;-51
2022/12/13 00:32:44;;;;;;;21.80;10.60;;;-0.70;1.00;;;;;;5082323;28;20538;-52
2022/12/13 00:35:11;;;;;;;20.57;11.10;;;-0.70;1.00;;;;;;5081373;28;20195;-50
2022/12/13 00:37:38;;;;;;;19.63;10.87;;;-0.80;1.00;;;;;;5078365;28;20214;-54
2022/12/13 00:40:05;;;;;;;20.63;11.10;;;-0.80;1.00;;;;;;5062034;28;20191;-52
2022/12/13 00:42:33;;;;;;;22.83;11.33;;;-0.80;1.00;;;;;;5081335;28;20206;-51
2022/12/13 00:45:00;;;;;;;22.97;11.20;;;-0.80;1.00;;;;;;5082344;28;20290;-52
2022/12/13 00:47:27;;;;;;;20.77;10.87;;;-0.80;1.00;;;;;;5080247;28;20210;-52
2022/12/13 00:49:54;;;;;;;17.43;10.10;;;-0.90;1.00;;;;;;5078250;28;20209;-53
2022/12/13 00:52:20;;;;;;;20.90;10.07;;;-0.90;1.00;;;;;;5079252;28;20210;-52
2022/12/13 00:54:47;;;;;;;24.90;10.53;;;-0.90;1.00;;;;;;5080548;28;20251;-53
2022/12/13 00:57:14;;;;;;;19.37;10.23;;;-0.90;1.00;;;;;;5079924;28;20206;-53
2022/12/13 00:59:41;;;;;;;19.57;11.77;;;-0.90;1.00;;;;;;5082824;28;20604;-51
2022/12/13 01:02:08;;;;;;;20.97;10.53;;;-0.90;1.00;;;;;;5081385;28;20195;-53
2022/12/13 01:04:35;;;;;;;23.70;11.57;;;-0.90;1.00;;;;;;5081820;28;20194;-51
2022/12/13 01:07:01;;;;;;;21.40;11.57;;;-0.90;1.00;;;;;;5080968;28;20207;-52
2022/12/13 01:09:30;;;;;;;18.20;10.50;;;-0.90;1.00;;;;;;5080296;28;20302;-53
2022/12/13 01:12:01;;;;;;;17.80;11.17;;;-1.00;1.00;;;;;;5080500;28;20561;-52
2022/12/13 01:14:29;;;;;;;22.63;11.00;;;-0.90;1.00;;;;;;5063189;28;20729;-50
2022/12/13 01:16:56;;;;;;;21.03;11.70;;;-1.00;1.00;;;;;;5079767;28;20264;-52
2022/12/13 01:19:25;;;;;;;19.60;10.13;;;-1.00;1.00;;;;;;5079719;28;20207;-50
2022/12/13 01:22:01;;;;;;;18.43;10.50;;;-1.10;1.00;;;;;;5080146;28;20578;-53
2022/12/13 01:24:29;;;;;;;22.53;10.07;;;-1.10;1.00;;;;;;5074999;28;20232;-52
2022/12/13 01:26:56;;;;;;;18.63;10.57;;;-1.20;1.00;;;;;;5080550;28;20686;-51
2022/12/13 01:29:24;;;;;;;19.47;10.50;;;-1.10;1.00;;;;;;5078653;28;20199;-51
2022/12/13 01:31:52;;;;;;;20.60;10.83;;;-1.10;1.00;;;;;;5079833;28;20206;-56
2022/12/13 01:34:21;;;;;;;19.00;10.37;;;-1.00;1.00;;;;;;5080763;28;20195;-53
2022/12/13 01:36:53;;;;;;;19.93;10.53;;;-1.10;1.00;;;;;;5080657;28;20698;-51
2022/12/13 01:39:25;;;;;;;23.00;10.53;;;-1.20;1.00;;;;;;5079793;28;20200;-53
2022/12/13 01:41:58;;;;;;;18.40;10.00;;;-1.30;1.00;;;;;;5079516;28;20200;-50
2022/12/13 01:44:50;;;;;;;19.17;10.37;;;-1.30;1.00;;;;;;5062514;28;20209;-54
2022/12/13 01:47:21;;;;;;;23.83;11.13;;;-1.20;1.00;;;;;;5079696;28;20202;-50
2022/12/13 01:49:49;;;;;;;21.03;11.60;;;-1.20;1.00;;;;;;5079669;28;20294;-52
2022/12/13 01:52:16;;;;;;;21.87;10.53;;;-1.20;1.00;;;;;;5079854;28;20305;-52
2022/12/13 01:54:47;;;;;;;18.40;10.00;;;-1.10;35.20;;;;;;5080101;28;20337;-53
2022/12/13 01:57:18;;;;;;;17.80;10.43;;;-1.10;99.90;;;;;;5078246;28;20222;-51
2022/12/13 01:59:46;;;;;;;22.90;11.43;;;-1.10;99.90;;;;;;5063359;28;20202;-52
2022/12/13 02:02:14;;;;;;;15.20;9.37;;;-1.10;1.00;;;;;;5077684;28;20217;-51
2022/12/13 02:05:01;;;;;;;20.83;10.83;;;-1.20;1.00;;;;;;5077082;28;20571;-54
2022/12/13 02:07:31;;;;;;;18.33;10.43;;;-1.30;1.00;;;;;;5078496;28;20257;-53
2022/12/13 02:10:01;;;;;;;21.30;10.30;;;-1.40;1.00;;;;;;5079314;28;20302;-52
2022/12/13 02:12:31;;;;;;;20.73;9.87;;;-1.50;1.00;;;;;;5079546;28;20653;-53
2022/12/13 02:15:01;;;;;;;20.23;9.67;;;-1.50;1.00;;;;;;5079318;28;20206;-52
2022/12/13 02:17:31;;;;;;;18.40;10.60;;;-1.60;1.00;;;;;;5077814;28;20222;-55
2022/12/13 02:20:17;;;;;;;17.77;10.17;;;-1.50;24.30;;;;;;5076356;28;20241;-55
2022/12/13 02:23:14;;;;;;;21.10;11.17;;;-1.60;1.00;;;;;;5073903;28;20202;-53
2022/12/13 02:25:49;;;;;;;20.73;11.20;;;-1.70;1.00;;;;;;5074876;28;20214;-54
2022/12/13 02:28:41;;;;;;;23.03;11.47;;;-1.60;99.90;;;;;;5079596;28;20203;-53
2022/12/13 02:31:21;;;;;;;18.30;10.50;;;-1.60;99.90;;;;;;5079394;28;20202;-52
2022/12/13 02:34:10;;;;;;;21.07;11.63;;;-1.60;99.90;;;;;;5079869;28;20197;-52
2022/12/13 02:36:59;;;;;;;20.10;10.70;;;-1.60;99.90;;;;;;5078302;28;20200;-53
2022/12/13 02:39:46;;;;;;;23.93;11.60;;;-1.60;99.90;;;;;;5077283;28;20290;-53
2022/12/13 02:42:25;;;;;;;17.77;10.47;;;-1.50;92.60;;;;;;5077711;28;20202;-52
2022/12/13 02:44:59;;;;;;;19.47;10.57;;;-1.60;99.90;;;;;;5080283;28;20203;-53
2022/12/13 02:47:28;;;;;;;18.73;11.10;;;-1.60;98.50;;;;;;5078904;28;20227;-53
2022/12/13 02:49:58;;;;;;;24.03;12.37;;;-1.70;99.90;;;;;;5080356;28;20199;-51
2022/12/13 02:52:28;;;;;;;20.20;11.30;;;-1.60;99.90;;;;;;5079329;28;20203;-52
2022/12/13 02:54:56;;;;;;;22.80;12.40;;;-1.60;99.90;;;;;;5078669;28;20239;-52
2022/12/13 02:57:34;;;;;;;20.23;10.97;;;-1.60;99.90;;;;;;5078548;28;20214;-53
2022/12/13 03:00:07;;;;;;;22.27;11.47;;;-1.60;99.90;;;;;;5078747;28;20195;-54
2022/12/13 03:02:52;;;;;;;21.80;10.37;;;-1.70;99.90;;;;;;5071801;28;20725;-54
2022/12/13 03:09:29;;;;;;;23.63;11.13;;;-1.70;99.90;;;;;;5063053;28;20209;-52
2022/12/13 03:15:10;;;;;;;16.70;10.30;;;-1.70;99.90;;;;;;5082629;28;20202;-52
2022/12/13 03:17:46;;;;;;;28.10;12.03;;;-1.70;99.90;;;;;;5078500;28;20215;-52
2022/12/13 03:20:16;;;;;;;21.27;11.83;;;-1.70;1.00;;;;;;5078325;28;20772;-53
2022/12/13 03:22:50;;;;;;;23.20;11.67;;;-1.70;1.00;;;;;;5076774;28;20267;-53
2022/12/13 03:25:17;;;;;;;20.53;11.00;;;-1.70;99.90;;;;;;5078145;28;20210;-53
2022/12/13 03:28:01;;;;;;;22.33;11.07;;;-1.70;1.00;;;;;;5079704;28;20642;-52
2022/12/13 03:30:30;;;;;;;25.10;11.17;;;-1.70;1.00;;;;;;5079461;28;20210;-53
2022/12/13 03:32:57;;;;;;;24.47;10.63;;;-1.70;1.00;;;;;;5078974;28;20203;-51
2022/12/13 03:35:25;;;;;;;20.33;11.00;;;-1.70;99.90;;;;;;5079270;28;20289;-55
2022/12/13 03:38:11;;;;;;;17.60;10.83;;;-1.70;1.00;;;;;;5078663;28;20297;-51
2022/12/13 03:40:53;;;;;;;17.20;10.40;;;-1.70;1.00;;;;;;5077794;28;20203;-54
2022/12/13 03:43:20;;;;;;;20.90;11.70;;;-1.70;99.90;;;;;;5078432;28;20194;-53
2022/12/13 03:45:49;;;;;;;21.80;10.47;;;-1.80;1.00;;;;;;5078890;28;20199;-53
2022/12/13 03:48:15;;;;;;;19.23;11.70;;;-1.80;1.00;;;;;;5078893;28;20230;-51
2022/12/13 03:50:50;;;;;;;20.53;10.33;;;-1.80;1.00;;;;;;5078028;28;20239;-58
2022/12/13 03:53:18;;;;;;;19.43;10.30;;;-1.80;99.90;;;;;;5080756;28;20330;-54
2022/12/13 03:55:59;;;;;;;25.57;11.00;;;-1.80;1.00;;;;;;5077550;28;20218;-54
2022/12/13 03:58:27;;;;;;;21.93;11.03;;;-1.80;1.00;;;;;;5080088;28;20305;-52
2022/12/13 04:01:05;;;;;;;21.97;11.07;;;-1.80;1.00;;;;;;5079450;28;20210;-52
2022/12/13 04:03:32;;;;;;;19.03;10.60;;;-1.80;99.90;;;;;;5064652;28;20230;-52
2022/12/13 04:05:58;;;;;;;22.00;10.80;;;-1.80;99.90;;;;;;5058458;28;20221;-51
2022/12/13 04:08:25;;;;;;;24.93;12.10;;;-1.80;1.00;;;;;;5078440;28;20658;-52
2022/12/13 04:10:52;;;;;;;25.50;11.57;;;-1.80;99.90;;;;;;5077053;28;20936;-56
2022/12/13 04:13:31;;;;;;;21.40;11.90;;;-1.80;99.90;;;;;;5077981;28;20309;-58
2022/12/13 04:15:59;;;;;;;22.50;11.50;;;-1.80;99.90;;;;;;5075909;28;20967;-53
2022/12/13 04:18:26;;;;;;;21.23;11.00;;;-1.80;99.90;;;;;;5077309;28;20238;-52
2022/12/13 04:20:52;;;;;;;18.47;10.80;;;-1.80;99.90;;;;;;5057446;28;20330;-51
2022/12/13 04:23:19;;;;;;;21.47;11.10;;;-1.80;99.90;;;;;;5075674;28;20207;-52
2022/12/13 04:25:46;;;;;;;24.33;11.07;;;-1.80;99.90;;;;;;5076892;28;20215;-52
2022/12/13 04:28:13;;;;;;;22.67;12.53;;;-1.80;99.90;;;;;;5079089;28;20286;-55
2022/12/13 04:30:51;;;;;;;21.60;11.73;;;-1.70;99.90;;;;;;5079711;28;20209;-54
2022/12/13 04:33:23;;;;;;;25.23;11.63;;;-1.70;99.90;;;;;;5077949;28;20677;-55
2022/12/13 04:35:50;;;;;;;21.73;11.27;;;-1.80;92.30;;;;;;5078161;28;20207;-51
2022/12/13 04:38:18;;;;;;;20.60;10.73;;;-1.80;99.90;;;;;;5076408;28;20297;-50
2022/12/13 04:40:44;;;;;;;20.53;11.83;;;-1.80;99.90;;;;;;5077907;28;20200;-52
2022/12/13 04:43:11;;;;;;;19.53;10.53;;;-1.80;99.90;;;;;;5078645;28;20834;-52
2022/12/13 04:45:38;;;;;;;20.43;11.17;;;-1.80;99.90;;;;;;5077560;28;20658;-56
2022/12/13 04:48:05;;;;;;;19.10;10.20;;;-1.80;90.60;;;;;;5059874;28;20205;-50
2022/12/13 04:50:32;;;;;;;17.83;11.07;;;-1.80;64.00;;;;;;5076544;28;20574;-52
2022/12/13 04:52:59;;;;;;;20.87;11.07;;;-1.90;1.00;;;;;;5077776;28;20199;-54
2022/12/13 04:55:26;;;;;;;21.10;10.73;;;-1.90;99.90;;;;;;5070688;28;20200;-53
2022/12/13 04:57:53;;;;;;;21.20;11.33;;;-1.90;99.90;;;;;;5058870;28;20208;-52
2022/12/13 05:00:23;;;;;;;19.13;10.97;;;-1.80;99.90;;;;;;5057665;28;20286;-52
2022/12/13 05:02:50;;;;;;;23.10;11.23;;;-1.80;1.00;;;;;;5056122;28;20218;-53
2022/12/13 05:05:17;;;;;;;22.33;10.70;;;-1.90;1.00;;;;;;5056939;28;20200;-54
2022/12/13 05:07:44;;;;;;;20.43;11.80;;;-1.90;1.00;;;;;;5039988;28;20611;-51
2022/12/13 05:10:11;;;;;;;19.93;10.50;;;-1.80;1.00;;;;;;5060046;28;20315;-52
2022/12/13 05:12:59;;;;;;;21.60;10.80;;;-1.90;1.00;;;;;;5058203;28;20578;-53
2022/12/13 05:15:26;;;;;;;18.93;10.67;;;-1.90;1.00;;;;;;5057413;28;20719;-53
2022/12/13 05:17:53;;;;;;;20.13;10.80;;;-1.90;1.00;;;;;;5056296;28;20682;-52
2022/12/13 05:20:20;;;;;;;17.27;11.13;;;-1.90;1.00;;;;;;5055793;28;20206;-54
2022/12/13 05:22:46;;;;;;;19.50;10.93;;;-1.90;1.00;;;;;;5054236;28;22105;-56
2022/12/13 05:25:13;;;;;;;22.40;10.87;;;-1.90;1.00;;;;;;5054491;28;20196;-54
2022/12/13 05:27:40;;;;;;;20.67;11.20;;;-2.00;1.00;;;;;;5055207;28;20199;-56
2022/12/13 05:30:08;;;;;;;18.50;9.93;;;-2.00;1.00;;;;;;5057689;28;20204;-53
2022/12/13 05:32:38;;;;;;;20.70;10.80;;;-2.00;1.00;;;;;;5057877;28;20286;-52
2022/12/13 05:35:12;;;;;;;25.73;12.07;;;-2.00;1.00;;;;;;5061486;28;20207;-51
2022/12/13 05:37:47;;;;;;;23.17;10.97;;;-1.90;1.00;;;;;;5058213;28;21602;-51
2022/12/13 05:40:20;;;;;;;25.73;12.40;;;-2.00;1.00;;;;;;5059106;28;20210;-52
2022/12/13 05:42:47;;;;;;;23.67;11.60;;;-2.00;1.00;;;;;;5060501;28;20203;-52
2022/12/13 05:45:16;;;;;;;20.70;11.27;;;-2.00;1.00;;;;;;5060491;28;20200;-52
2022/12/13 05:47:43;;;;;;;24.53;12.17;;;-2.00;1.00;;;;;;5060712;28;20210;-51
2022/12/13 05:50:10;;;;;;;21.70;11.07;;;-2.00;1.10;;;;;;5058815;28;20207;-54
2022/12/13 05:52:37;;;;;;;20.40;11.47;;;-2.00;1.00;;;;;;5059356;28;20204;-52
2022/12/13 05:55:04;;;;;;;21.67;11.33;;;-2.00;1.00;;;;;;5076357;28;20325;-53
2022/12/13 05:57:31;;;;;;;20.53;10.93;;;-1.90;23.00;;;;;;5078737;28;20224;-61
2022/12/13 05:59:59;;;;;;;24.03;11.07;;;-2.00;99.90;;;;;;5078720;28;20481;-54
2022/12/13 06:02:26;;;;;;;22.97;11.73;;;-2.00;99.90;;;;;;5079371;28;20234;-55
2022/12/13 06:04:53;;;;;;;24.73;11.90;;;-2.00;1.00;;;;;;5078694;28;20285;-62
2022/12/13 06:07:20;;;;;;;19.80;11.13;;;-2.10;99.90;;;;;;5079794;28;20559;-52
2022/12/13 06:09:47;;;;;;;25.63;12.13;;;-2.10;99.90;;;;;;5079337;28;20194;-55
2022/12/13 06:12:15;;;;;;;19.77;10.93;;;-2.20;99.90;;;;;;5080200;28;20680;-53
2022/12/13 06:14:58;;;;;;;20.10;11.67;;;-2.20;99.90;;;;;;5077937;28;20276;-56
2022/12/13 06:17:35;;;;;;;22.33;11.53;;;-2.10;99.90;;;;;;5078717;28;20195;-56
2022/12/13 06:20:04;;;;;;;26.43;11.33;;;-2.10;99.90;;;;;;5080426;28;20688;-53
2022/12/13 06:22:53;;;;;;;25.93;11.93;;;-2.10;99.90;;;;;;5078736;28;20192;-52
2022/12/13 06:25:19;;;;;;;21.73;11.00;;;-2.10;78.20;;;;;;5080031;28;20202;-53
2022/12/13 06:27:58;;;;;;;23.03;11.00;;;-2.10;1.00;;;;;;5079459;28;20202;-53
2022/12/13 06:30:28;;;;;;;23.90;12.00;;;-2.10;1.00;;;;;;5079183;28;20348;-55
2022/12/13 06:32:55;;;;;;;23.00;10.67;;;-2.20;1.00;;;;;;5078872;28;20257;-55
2022/12/13 06:35:22;;;;;;;21.80;11.07;;;-2.30;2.70;;;;;;5061492;28;20755;-51
2022/12/13 06:37:54;;;;;;;25.73;11.20;;;-2.30;99.90;;;;;;5061466;28;20249;-53
2022/12/13 06:40:30;;;;;;;20.60;10.87;;;-2.30;99.90;;;;;;5077840;28;20203;-52
2022/12/13 06:42:57;;;;;;;23.27;10.57;;;-2.30;99.90;;;;;;5077837;28;20203;-52
2022/12/13 06:45:24;;;;;;;25.43;11.80;;;-2.30;99.90;;;;;;5079108;28;20206;-53
2022/12/13 06:47:51;;;;;;;20.50;10.80;;;-2.20;99.90;;;;;;5078296;28;20210;-50
2022/12/13 06:50:18;;;;;;;22.47;10.83;;;-2.20;99.90;;;;;;5078765;28;20225;-52
2022/12/13 06:52:45;;;;;;;22.87;11.30;;;-2.30;99.90;;;;;;5078373;28;20214;-53
2022/12/13 06:55:14;;;;;;;19.13;11.73;;;-2.30;99.90;;;;;;5067082;28;20262;-52
2022/12/13 06:57:49;;;;;;;21.90;11.60;;;-2.30;99.90;;;;;;5067171;28;20209;-54
2022/12/13 07:00:16;;;;;;;22.40;13.47;;;-2.40;99.90;;;;;;5070460;28;20265;-52
2022/12/13 07:02:53;;;;;;;24.93;11.47;;;-2.30;99.90;;;;;;5079730;28;20520;-50
2022/12/13 07:05:21;;;;;;;21.20;10.53;;;-2.40;99.90;;;;;;5078477;28;20195;-51
2022/12/13 07:07:48;;;;;;;24.00;11.00;;;-2.40;99.90;;;;;;5078120;28;20195;-53
2022/12/13 07:10:15;;;;;;;25.43;11.60;;;-2.40;99.90;;;;;;5078336;28;20221;-53
2022/12/13 07:12:48;;;;;;;25.30;12.23;;;-2.30;99.90;;;;;;5079653;28;20195;-52
2022/12/13 07:15:15;;;;;;;23.67;11.40;;;-2.30;99.90;;;;;;5077836;28;20210;-53
2022/12/13 07:17:42;;;;;;;21.73;11.57;;;-2.20;99.90;;;;;;5076401;28;20282;-53
2022/12/13 07:20:12;;;;;;;22.23;11.43;;;-2.20;94.50;;;;;;5076263;28;20293;-53
2022/12/13 07:22:39;;;;;;;22.90;11.50;;;-2.20;27.70;;;;;;5075809;28;20195;-51
2022/12/13 07:25:14;;;;;;;22.37;10.77;;;-2.20;1.00;;;;;;5076396;28;20193;-52
2022/12/13 07:28:04;;;;;;;22.73;13.07;;;-2.20;21.70;;;;;;5072790;28;20635;-54
2022/12/13 07:30:33;;;;;;;22.87;12.60;;;-2.20;99.90;;;;;;5072424;28;20202;-52
2022/12/13 07:33:08;;;;;;;21.40;11.97;;;-2.20;22.20;;;;;;4707531;28;10000003;-55
2022/12/13 07:35:35;;;;;;;24.13;12.40;;;-2.20;99.90;;;;;;5069559;28;20840;-52
2022/12/13 07:38:07;;;;;;;22.00;12.67;;;-2.30;99.90;;;;;;5072023;28;20223;-53
2022/12/13 07:40:35;;;;;;;25.73;12.77;;;-2.20;99.90;;;;;;5064062;28;20306;-52
2022/12/13 07:43:03;;;;;;;27.30;12.20;;;-2.20;99.90;;;;;;5070363;28;20244;-52
2022/12/13 07:45:31;;;;;;;23.97;12.00;;;-2.20;99.90;;;;;;5072356;28;20199;-51
2022/12/13 07:48:02;;;;;;;28.67;12.17;;;-2.20;99.90;;;;;;5062319;28;20285;-55
2022/12/13 07:50:29;;;;;;;20.43;11.33;;;-2.10;1.00;;;;;;5056118;28;20242;-55
2022/12/13 07:53:05;;;;;;;26.07;12.87;;;-2.10;99.90;;;;;;5071519;28;20206;-52
2022/12/13 07:55:33;;;;;;;25.23;12.07;;;-2.20;99.90;;;;;;5072286;28;20235;-53
2022/12/13 07:58:12;;;;;;;24.30;11.90;;;-2.10;99.90;;;;;;5057408;28;20672;-54
2022/12/13 08:00:41;;;;;;;22.60;12.27;;;-2.10;99.90;;;;;;5075696;28;20199;-52
2022/12/13 08:03:12;;;;;;;22.20;12.87;;;-2.20;99.90;;;;;;5077436;28;20195;-55
2022/12/13 08:06:00;;;;;;;25.33;12.60;;;-2.20;99.90;;;;;;5077315;28;20685;-53
2022/12/13 08:08:27;;;;;;;23.37;12.20;;;-2.20;82.80;;;;;;5077224;28;20214;-53
2022/12/13 08:11:05;;;;;;;26.20;13.43;;;-2.20;99.90;;;;;;5071099;28;20681;-53
2022/12/13 08:13:33;;;;;;;30.43;13.13;;;-2.10;99.90;;;;;;5076369;28;20203;-52
2022/12/13 08:16:01;;;;;;;25.93;12.50;;;-2.10;99.90;;;;;;5080395;28;20210;-52
2022/12/13 08:18:29;;;;;;;27.60;14.77;;;-2.10;99.90;;;;;;5077803;28;20571;-54
2022/12/13 08:21:03;;;;;;;25.33;12.83;;;-2.10;99.90;;;;;;5073964;28;20202;-51
2022/12/13 08:23:50;;;;;;;23.57;12.77;;;-2.00;99.90;;;;;;5075281;28;20222;-53
2022/12/13 08:26:17;;;;;;;22.43;12.80;;;-2.00;99.90;;;;;;5076145;28;20191;-53
2022/12/13 08:28:44;;;;;;;25.23;12.63;;;-2.00;75.10;;;;;;5075787;28;20654;-54
2022/12/13 08:31:12;;;;;;;28.93;14.23;;;-1.90;99.90;;;;;;5075849;28;20553;-54
2022/12/13 08:33:39;;;;;;;25.53;13.30;;;-1.80;99.90;;;;;;5074624;28;20206;-53
2022/12/13 08:36:15;;;;;;;26.70;13.83;;;-1.70;1.00;;;;;;5078537;28;20298;-52
2022/12/13 08:38:42;;;;;;;28.87;13.57;;;-1.80;1.00;;;;;;5075873;28;20222;-58
2022/12/13 08:41:10;;;;;;;29.50;15.43;;;-1.90;1.00;;;;;;5075935;28;20314;-51
2022/12/13 08:43:37;;;;;;;26.00;13.57;;;-1.90;1.00;;;;;;5076768;28;20710;-53
2022/12/13 08:46:04;;;;;;;27.63;14.87;;;-1.80;1.00;;;;;;5077318;28;20221;-50
2022/12/13 08:48:32;;;;;;;29.00;14.17;;;-1.80;1.00;;;;;;5070280;28;20572;-50
2022/12/13 08:51:11;;;;;;;25.17;14.43;;;-1.80;1.00;;;;;;5077985;28;20196;-52
2022/12/13 08:53:38;;;;;;;25.97;13.87;;;-1.60;9.40;;;;;;5077928;28;20266;-53
2022/12/13 08:56:10;;;;;;;28.63;14.67;;;-1.60;1.00;;;;;;5079298;28;20322;-50
2022/12/13 08:58:38;;;;;;;30.90;14.47;;;-1.60;1.70;;;;;;5080464;28;20242;-52
2022/12/13 09:01:06;;;;;;;27.57;14.83;;;-1.50;1.00;;;;;;5078857;28;20206;-52
2022/12/13 09:03:34;;;;;;;33.67;16.20;;;-1.40;1.00;;;;;;5078723;28;20218;-53
2022/12/13 09:06:09;;;;;;;28.67;14.23;;;-1.30;1.00;;;;;;5078178;28;20282;-52
2022/12/13 09:08:37;;;;;;;30.57;15.17;;;-1.20;1.00;;;;;;5080194;28;20302;-55
2022/12/13 09:11:05;;;;;;;29.53;15.67;;;-1.20;1.00;;;;;;5079015;28;20257;-55
2022/12/13 09:13:49;;;;;;;30.43;15.33;;;-1.40;1.00;;;;;;5079941;28;20283;-53
2022/12/13 09:16:21;;;;;;;32.80;14.17;;;-1.30;1.00;;;;;;5079437;28;20608;-54
2022/12/13 09:18:51;;;;;;;29.60;13.90;;;-1.30;1.00;;;;;;5077324;28;20272;-56
2022/12/13 09:21:21;;;;;;;30.07;14.57;;;-1.00;1.00;;;;;;5075407;28;20718;-55
2022/12/13 09:23:57;;;;;;;24.47;14.37;;;-0.90;1.00;;;;;;5079953;28;20244;-57
2022/12/13 09:26:28;;;;;;;27.03;15.77;;;-1.00;99.90;;;;;;5078237;28;20206;-55
2022/12/13 09:29:03;;;;;;;28.43;13.97;;;-1.00;1.00;;;;;;5063752;28;20205;-54
2022/12/13 09:31:39;;;;;;;25.07;14.13;;;-1.00;99.90;;;;;;5079549;28;20289;-55
2022/12/13 09:34:07;;;;;;;25.30;14.17;;;-1.10;1.00;;;;;;5078990;28;20247;-55
2022/12/13 09:36:34;;;;;;;27.03;14.83;;;-1.00;1.00;;;;;;5079502;28;20246;-55
2022/12/13 09:39:01;;;;;;;24.80;14.80;;;-0.90;1.00;;;;;;5069757;28;20210;-55
2022/12/13 09:41:32;;;;;;;33.40;14.50;;;-0.80;1.00;;;;;;5078641;28;20195;-55
2022/12/13 09:44:15;;;;;;;28.23;13.77;;;-0.80;1.00;;;;;;5079160;28;20307;-55
2022/12/13 09:47:02;;;;;;;25.87;14.63;;;-0.60;1.00;;;;;;5076244;28;20281;-56
2022/12/13 09:49:43;;;;;;;24.07;14.33;;;-0.60;99.90;;;;;;5062058;28;20206;-54
2022/12/13 09:52:20;;;;;;;26.90;14.70;;;-0.60;1.00;;;;;;5078047;28;20217;-54
2022/12/13 09:54:54;;;;;;;25.70;15.67;;;-0.50;99.90;;;;;;5075223;28;20270;-54
2022/12/13 09:57:31;;;;;;;27.17;14.93;;;-0.40;99.90;;;;;;5076890;28;20282;-54
2022/12/13 10:00:04;;;;;;;25.70;15.33;;;-0.30;99.90;;;;;;5078043;28;20245;-54
2022/12/13 10:02:36;;;;;;;30.20;16.13;;;-0.30;99.90;;;;;;5078582;28;20618;-54
2022/12/13 10:05:32;;;;;;;25.80;14.80;;;0.10;99.90;;;;;;5078456;28;21019;-54
2022/12/13 10:08:19;;;;;;;27.20;14.23;;;0.40;1.00;;;;;;5077465;28;20288;-55
2022/12/13 10:10:54;;;;;;;24.40;14.30;;;0.30;1.00;;;;;;5078730;28;20555;-55
2022/12/13 10:13:24;;;;;;;25.10;14.57;;;0.30;1.00;;;;;;5077172;28;20202;-55
2022/12/13 10:15:59;;;;;;;25.87;14.87;;;0.10;1.00;;;;;;5076120;28;20200;-54
2022/12/13 10:18:37;;;;;;;32.67;16.23;;;0.10;4.50;;;;;;5074975;28;20209;-57
2022/12/13 10:21:19;;;;;;;30.47;15.10;;;0.20;1.00;;;;;;5074576;28;20636;-54
2022/12/13 10:23:46;;;;;;;26.63;14.43;;;0.10;1.00;;;;;;5078477;28;20252;-55
2022/12/13 10:26:38;;;;;;;25.33;14.67;;;0.20;1.00;;;;;;5076554;28;20210;-62
2022/12/13 10:29:07;;;;;;;28.40;14.70;;;0.30;1.00;;;;;;5077628;28;20256;-54
2022/12/13 10:31:44;;;;;;;27.23;13.93;;;0.20;1.00;;;;;;5077511;28;20218;-56
2022/12/13 10:34:24;;;;;;;24.43;13.07;;;0.30;1.00;;;;;;5075234;28;20206;-57
2022/12/13 10:36:50;;;;;;;23.93;13.03;;;0.20;1.00;;;;;;5077870;28;20204;-54
2022/12/13 10:39:51;;;;;;;22.87;14.30;;;0.20;1.00;;;;;;5076305;28;20269;-54
2022/12/13 10:42:20;;;;;;;28.20;14.57;;;0.40;1.00;;;;;;5030205;28;20196;-54
2022/12/13 10:45:26;;;;;;;27.10;15.03;;;0.30;1.00;;;;;;5077767;28;20199;-54
2022/12/13 10:47:52;;;;;;;24.23;13.27;;;0.40;1.00;;;;;;4976729;28;20194;-54
2022/12/13 10:50:27;;;;;;;28.50;14.07;;;0.50;1.00;;;;;;4977254;28;20217;-55
2022/12/13 10:52:56;;;;;;;26.83;15.23;;;0.60;1.00;;;;;;4980356;28;20239;-56
2022/12/13 10:55:34;;;;;;;25.30;14.10;;;0.50;1.00;;;;;;4979348;28;20241;-55
2022/12/13 10:58:08;;;;;;;24.67;13.70;;;0.60;1.00;;;;;;4979511;28;20288;-55
2022/12/13 11:00:43;;;;;;;25.33;14.43;;;0.50;1.00;;;;;;4976229;28;20228;-54
2022/12/13 11:03:31;;;;;;;23.40;13.67;;;0.50;1.00;;;;;;4978192;28;21238;-54
2022/12/13 11:06:16;;;;;;;23.80;13.40;;;0.40;1.00;;;;;;4973391;28;20276;-54
2022/12/13 11:08:43;;;;;;;25.13;13.77;;;0.60;1.00;;;;;;4977139;28;20214;-54
2022/12/13 11:11:11;;;;;;;25.30;14.10;;;0.60;1.00;;;;;;4980197;28;20327;-54
2022/12/13 11:13:50;;;;;;;27.10;14.20;;;0.70;1.00;;;;;;4980679;28;20670;-55
2022/12/13 11:16:30;;;;;;;24.60;13.07;;;0.50;1.00;;;;;;4978684;28;20221;-54
2022/12/13 11:19:01;;;;;;;24.30;12.57;;;0.60;1.00;;;;;;4977452;28;20316;-55
2022/12/13 11:21:32;;;;;;;26.23;14.13;;;0.40;1.00;;;;;;5002046;28;20322;-55
2022/12/13 11:24:02;;;;;;;23.27;13.80;;;0.40;1.00;;;;;;5055153;28;20283;-54
2022/12/13 11:26:37;;;;;;;26.27;14.23;;;0.50;1.00;;;;;;5052890;28;20251;-54
2022/12/13 11:29:13;;;;;;;26.13;14.03;;;0.50;1.00;;;;;;5051921;28;20225;-56
2022/12/13 11:31:46;;;;;;;24.13;14.43;;;0.70;1.00;;;;;;5059475;28;20317;-54
2022/12/13 11:34:29;;;;;;;26.13;14.00;;;0.80;1.00;;;;;;5060097;28;20601;-54
2022/12/13 11:37:17;;;;;;;26.83;14.27;;;0.90;1.00;;;;;;5059054;28;20232;-55
2022/12/13 11:40:10;;;;;;;24.33;12.23;;;1.10;1.00;;;;;;5060130;28;20234;-55
2022/12/13 11:42:49;;;;;;;27.47;14.07;;;1.30;1.00;;;;;;5058743;28;20210;-55
2022/12/13 11:45:40;;;;;;;25.90;13.67;;;1.50;1.00;;;;;;5062377;28;20362;-55
2022/12/13 11:48:20;;;;;;;24.50;13.03;;;1.80;1.00;;;;;;5060968;28;20204;-55
2022/12/13 11:50:49;;;;;;;27.70;14.10;;;1.80;99.90;;;;;;5060389;28;20246;-55
2022/12/13 11:53:33;;;;;;;20.93;12.37;;;1.80;99.90;;;;;;5060850;28;20206;-55
2022/12/13 11:56:14;;;;;;;25.40;13.40;;;2.00;99.90;;;;;;5065015;28;21562;-55
2022/12/13 11:58:51;;;;;;;23.73;13.00;;;1.80;99.90;;;;;;5078320;28;20202;-55
2022/12/13 12:01:45;;;;;;;27.37;14.03;;;1.50;99.90;;;;;;5081058;28;20215;-54
2022/12/13 12:04:41;;;;;;;24.80;13.70;;;1.40;99.90;;;;;;5066703;28;20286;-54
2022/12/13 12:07:14;;;;;;;24.70;12.53;;;1.50;99.90;;;;;;5078862;28;20223;-54
2022/12/13 12:10:20;;;;;;;22.07;12.97;;;1.40;99.90;;;;;;5079040;28;20212;-55
2022/12/13 12:12:54;;;;;;;23.97;12.40;;;1.40;99.90;;;;;;5076016;28;20199;-54
2022/12/13 12:15:41;;;;;;;21.50;12.73;;;1.50;99.90;;;;;;5077926;28;20211;-55
2022/12/13 12:18:14;;;;;;;29.17;13.67;;;1.40;1.00;;;;;;5078513;28;20776;-54
2022/12/13 12:21:25;;;;;;;23.30;11.30;;;1.40;1.00;;;;;;5060125;28;20217;-54
2022/12/13 12:24:30;;;;;;;21.87;12.70;;;1.30;99.90;;;;;;5068158;28;20219;-54
2022/12/13 12:27:06;;;;;;;22.53;12.37;;;1.50;99.90;;;;;;5078821;28;20302;-57
2022/12/13 12:30:10;;;;;;;25.73;14.20;;;1.40;1.00;;;;;;5080737;28;20199;-55
2022/12/13 12:32:43;;;;;;;22.00;12.50;;;1.50;99.90;;;;;;5052849;28;20761;-55
2022/12/13 12:35:19;;;;;;;28.93;15.00;;;1.40;1.00;;;;;;5078413;28;20202;-55
2022/12/13 12:38:13;;;;;;;27.00;14.07;;;1.50;99.90;;;;;;5077665;28;20215;-54
2022/12/13 12:40:55;;;;;;;22.10;12.00;;;1.50;1.00;;;;;;5080648;28;20247;-56
2022/12/13 12:43:43;;;;;;;20.33;12.30;;;1.50;1.00;;;;;;5079492;28;20309;-58
2022/12/13 12:46:25;;;;;;;21.07;13.17;;;1.40;99.90;;;;;;5077499;28;20230;-61
2022/12/13 12:49:01;;;;;;;24.97;12.97;;;1.40;99.90;;;;;;5076845;28;20659;-54
2022/12/13 12:51:46;;;;;;;26.77;13.30;;;1.40;99.90;;;;;;5077399;28;20289;-54
2022/12/13 12:54:36;;;;;;;20.37;12.50;;;1.40;99.90;;;;;;5077195;28;20639;-54
2022/12/13 12:57:28;;;;;;;21.73;12.47;;;1.50;99.90;;;;;;5075868;28;20597;-54
2022/12/13 13:00:03;;;;;;;24.60;12.40;;;1.40;99.90;;;;;;5078722;28;20214;-54
2022/12/13 13:02:38;;;;;;;22.10;11.70;;;1.40;99.90;;;;;;5076187;28;20513;-54
2022/12/13 13:05:29;;;;;;;21.13;11.40;;;1.50;99.90;;;;;;5078832;28;20203;-54
2022/12/13 13:08:11;;;;;;;22.77;12.63;;;1.50;99.90;;;;;;5077037;28;20551;-54
2022/12/13 13:10:41;;;;;;;22.27;11.80;;;1.40;99.90;;;;;;5065541;28;20231;-54
2022/12/13 13:13:34;;;;;;;22.43;12.63;;;1.20;1.00;;;;;;5078478;28;20279;-54